createdAt,value
2022-08-02T00:01:43.219Z,95.68
2022-08-02T00:04:45.430Z,96.35
2022-08-02T00:07:47.622Z,96.40
2022-08-02T00:10:50.561Z,96.57
2022-08-02T00:13:53.010Z,96.75
2022-08-02T00:16:54.838Z,96.84
2022-08-02T00:19:56.634Z,96.83
2022-08-02T00:22:58.410Z,97.12
2022-08-02T00:26:00.347Z,97.18
2022-08-02T00:29:02.354Z,97.48
2022-08-02T00:32:04.702Z,97.51
2022-08-02T00:35:07.195Z,97.83
2022-08-02T00:38:08.940Z,98.07
2022-08-02T00:41:19.607Z,98.38
2022-08-02T00:44:21.559Z,98.27
2022-08-02T00:47:23.365Z,98.28
2022-08-02T00:50:25.166Z,98.34
2022-08-02T00:53:26.966Z,98.29
2022-08-02T00:56:28.726Z,98.23
2022-08-02T00:59:30.610Z,98.31
2022-08-02T01:02:32.423Z,98.28
2022-08-02T01:05:52.254Z,98.21
2022-08-02T01:08:56.017Z,98.22
2022-08-02T01:11:57.881Z,98.21
2022-08-02T01:15:08.401Z,98.25
2022-08-02T01:18:16.585Z,98.18
2022-08-02T01:21:37.273Z,98.10
2022-08-02T01:24:45.039Z,98.32
2022-08-02T01:28:17.616Z,98.37
2022-08-02T01:31:29.308Z,98.47
2022-08-02T01:34:36.107Z,98.60
2022-08-02T01:37:55.544Z,98.75
2022-08-02T01:40:59.033Z,98.92
2022-08-02T01:44:01.722Z,98.96
2022-08-02T01:47:08.144Z,99.03
2022-08-02T01:50:13.553Z,99.19
2022-08-02T01:53:15.938Z,99.21
2022-08-02T01:56:18.638Z,99.30
2022-08-02T01:59:21.955Z,99.41
2022-08-02T02:02:26.280Z,99.61
2022-08-02T02:05:31.671Z,99.76
2022-08-02T02:08:38.672Z,99.89
2022-08-02T02:12:10.133Z,99.91
2022-08-02T02:15:05.976Z,99.97
2022-08-02T02:18:12.912Z,99.99
2022-08-02T02:21:16.801Z,100.00
2022-08-02T02:24:18.677Z,100.00
2022-08-02T02:27:24.200Z,100.00
2022-08-02T02:30:27.203Z,100.00
2022-08-02T02:33:31.139Z,100.00
2022-08-02T02:36:34.109Z,100.00
2022-08-02T02:39:37.429Z,100.00
2022-08-02T02:42:41.227Z,100.00
2022-08-02T02:45:44.079Z,100.00
2022-08-02T02:48:51.628Z,100.00
2022-08-02T02:51:53.819Z,100.00
2022-08-02T02:54:55.789Z,100.00
2022-08-02T02:57:59.023Z,100.00
2022-08-02T03:01:19.869Z,100.00
2022-08-02T03:04:22.149Z,100.00
2022-08-02T03:07:23.978Z,100.00
2022-08-02T03:10:27.099Z,100.00
2022-08-02T03:13:33.016Z,100.00
2022-08-02T03:16:42.499Z,100.00
2022-08-02T03:19:45.416Z,100.00
2022-08-02T03:22:47.991Z,100.00
2022-08-02T03:25:50.291Z,100.00
2022-08-02T03:28:52.180Z,100.00
2022-08-02T03:31:54.451Z,100.00
2022-08-02T03:34:56.731Z,100.00
2022-08-02T03:38:00.037Z,100.00
2022-08-02T03:41:03.667Z,100.00
2022-08-02T03:44:07.065Z,100.00
2022-08-02T03:47:08.993Z,100.00
2022-08-02T03:50:15.125Z,100.00
2022-08-02T03:53:20.039Z,100.00
2022-08-02T03:56:23.613Z,100.00
2022-08-02T03:59:25.428Z,100.00
2022-08-02T04:02:33.754Z,100.00
2022-08-02T04:05:35.465Z,100.00
2022-08-02T04:08:57.315Z,100.00
2022-08-02T04:11:59.223Z,100.00
2022-08-02T04:15:02.219Z,100.00
2022-08-02T04:18:04.589Z,100.00
2022-08-02T04:21:06.896Z,100.00
2022-08-02T04:24:10.969Z,100.00
2022-08-02T04:27:51.321Z,100.00
2022-08-02T04:30:36.970Z,100.00
2022-08-02T04:33:38.976Z,100.00
2022-08-02T04:36:41.062Z,100.00
2022-08-02T04:39:43.633Z,100.00
2022-08-02T04:42:45.521Z,100.00
2022-08-02T04:45:50.135Z,100.00
2022-08-02T04:48:51.911Z,100.00
2022-08-02T04:51:53.863Z,100.00
2022-08-02T04:54:55.725Z,100.00
2022-08-02T04:57:58.482Z,100.00
2022-08-02T05:01:00.466Z,100.00
2022-08-02T05:04:03.106Z,100.00
2022-08-02T05:07:04.848Z,100.00
2022-08-02T05:10:06.950Z,100.00
2022-08-02T05:13:08.670Z,100.00
2022-08-02T05:16:10.616Z,100.00
2022-08-02T05:19:12.382Z,100.00
2022-08-02T05:22:14.398Z,100.00
2022-08-02T05:25:16.427Z,100.00
2022-08-02T05:28:18.737Z,100.00
2022-08-02T05:31:21.222Z,100.00
2022-08-02T05:34:23.045Z,100.00
2022-08-02T05:37:24.913Z,100.00
2022-08-02T05:40:26.822Z,100.00
2022-08-02T05:43:28.619Z,100.00
2022-08-02T05:46:31.077Z,100.00
2022-08-02T05:49:32.869Z,100.00
2022-08-02T05:52:57.512Z,100.00
2022-08-02T05:56:09.998Z,100.00
2022-08-02T05:59:27.793Z,100.00
2022-08-02T06:02:36.355Z,100.00
2022-08-02T06:05:43.730Z,100.00
2022-08-02T06:08:48.651Z,100.00
2022-08-02T06:12:02.622Z,100.00
2022-08-02T06:15:05.411Z,100.00
2022-08-02T06:18:08.688Z,100.00
2022-08-02T06:22:31.690Z,100.00
2022-08-02T06:24:34.825Z,100.00
2022-08-02T06:27:40.441Z,100.00
2022-08-02T06:30:44.412Z,100.00
2022-08-02T06:33:49.066Z,100.00
2022-08-02T06:37:02.601Z,100.00
2022-08-02T06:40:31.352Z,100.00
2022-08-02T06:44:19.666Z,100.00
2022-08-02T06:47:32.134Z,100.00
2022-08-02T06:50:42.120Z,100.00
2022-08-02T06:53:45.349Z,100.00
2022-08-02T06:56:47.926Z,100.00
2022-08-02T06:59:50.400Z,100.00
2022-08-02T07:02:53.311Z,100.00
2022-08-02T07:05:55.101Z,100.00
2022-08-02T07:09:19.411Z,100.00
2022-08-02T07:12:19.250Z,100.00
2022-08-02T07:15:21.066Z,100.00
2022-08-02T07:18:24.464Z,100.00
2022-08-02T07:21:56.762Z,100.00
2022-08-02T07:24:47.989Z,100.00
2022-08-02T07:27:49.828Z,100.00
2022-08-02T07:30:52.095Z,100.00
2022-08-02T07:33:55.033Z,100.00
2022-08-02T07:36:56.823Z,100.00
2022-08-02T07:40:02.862Z,99.82
2022-08-02T07:43:07.454Z,98.84
2022-08-02T07:46:09.356Z,98.29
2022-08-02T07:49:11.450Z,98.32
2022-08-02T07:52:13.830Z,98.60
2022-08-02T07:55:18.210Z,99.63
2022-08-02T07:58:20.084Z,99.71
2022-08-02T08:01:21.798Z,99.16
2022-08-02T08:04:23.600Z,99.27
2022-08-02T08:07:25.831Z,99.53
2022-08-02T08:10:27.615Z,98.65
2022-08-02T08:13:29.560Z,98.24
2022-08-02T08:16:31.373Z,96.62
2022-08-02T08:19:50.048Z,94.70
2022-08-02T08:22:53.706Z,93.81
2022-08-02T08:25:55.480Z,93.90
2022-08-02T08:28:57.271Z,94.62
2022-08-02T08:31:59.219Z,93.97
2022-08-02T08:35:01.306Z,94.63
2022-08-02T08:38:07.402Z,93.36
2022-08-02T08:41:10.037Z,93.84
2022-08-02T08:44:11.834Z,94.58
2022-08-02T08:47:13.693Z,92.75
2022-08-02T08:50:25.670Z,90.97
2022-08-02T08:53:36.544Z,91.59
2022-08-02T08:56:40.086Z,89.45
2022-08-02T08:59:41.901Z,90.02
2022-08-02T09:02:44.058Z,90.62
2022-08-02T09:05:47.157Z,90.06
2022-08-02T09:08:48.978Z,88.48
2022-08-02T09:11:51.242Z,88.02
2022-08-02T09:14:53.342Z,88.46
2022-08-02T09:17:55.238Z,88.21
2022-08-02T09:21:05.741Z,89.08
2022-08-02T09:24:17.881Z,88.48
2022-08-02T09:27:22.098Z,86.75
2022-08-02T09:30:26.569Z,86.25
2022-08-02T09:33:29.001Z,86.58
2022-08-02T09:36:44.877Z,87.88
2022-08-02T09:39:47.718Z,86.83
2022-08-02T09:42:59.103Z,87.52
2022-08-02T09:46:24.029Z,85.04
2022-08-02T09:49:26.605Z,86.38
2022-08-02T09:52:33.991Z,83.81
2022-08-02T09:55:56.210Z,84.24
2022-08-02T09:58:58.070Z,85.76
2022-08-02T10:02:17.524Z,85.74
2022-08-02T10:05:22.713Z,84.68
2022-08-02T10:08:25.594Z,85.70
2022-08-02T10:11:28.720Z,85.37
2022-08-02T10:14:30.682Z,83.19
2022-08-02T10:17:32.842Z,80.54
2022-08-02T10:20:44.891Z,81.13
2022-08-02T10:23:50.620Z,79.33
2022-08-02T10:26:52.756Z,80.27
2022-08-02T10:29:57.954Z,80.36
2022-08-02T10:33:01.315Z,79.96
2022-08-02T10:36:07.626Z,78.98
2022-08-02T10:39:10.206Z,79.31
2022-08-02T10:42:14.041Z,78.53
2022-08-02T10:45:19.867Z,77.95
2022-08-02T10:48:22.557Z,77.67
2022-08-02T10:51:24.740Z,78.46
2022-08-02T10:54:36.453Z,78.96
2022-08-02T10:57:39.211Z,79.94
2022-08-02T11:00:41.006Z,82.24
2022-08-02T11:03:44.937Z,81.77
2022-08-02T11:07:08.295Z,80.52
2022-08-02T11:10:25.279Z,80.30
2022-08-02T11:13:27.348Z,79.83
2022-08-02T11:16:57.728Z,78.79
2022-08-02T11:20:08.554Z,77.97
2022-08-02T11:23:44.420Z,77.64
2022-08-02T11:26:48.168Z,79.25
2022-08-02T11:29:50.972Z,78.57
2022-08-02T11:32:57.422Z,79.98
2022-08-02T11:36:04.782Z,79.93
2022-08-02T11:39:15.953Z,80.25
2022-08-02T11:42:17.943Z,79.60
2022-08-02T11:45:29.362Z,77.46
2022-08-02T11:48:47.533Z,74.83
2022-08-02T11:52:01.181Z,74.20
2022-08-02T11:55:30.464Z,75.03
2022-08-02T11:58:32.186Z,76.49
2022-08-02T12:01:46.132Z,77.32
2022-08-02T12:04:53.369Z,76.59
2022-08-02T12:07:59.093Z,75.87
2022-08-02T12:11:03.140Z,75.12
2022-08-02T12:14:06.243Z,74.07
2022-08-02T12:17:28.763Z,74.12
2022-08-02T12:20:37.732Z,73.33
2022-08-02T12:23:59.832Z,71.85
2022-08-02T12:27:02.943Z,72.22
2022-08-02T12:30:11.357Z,71.87
2022-08-02T12:33:13.858Z,72.02
2022-08-02T12:36:24.505Z,70.61
2022-08-02T12:39:46.304Z,70.54
2022-08-02T12:43:02.981Z,71.70
2022-08-02T12:46:16.370Z,71.23
2022-08-02T12:49:19.103Z,71.75
2022-08-02T12:52:23.486Z,72.53
2022-08-02T12:56:00.752Z,71.87
2022-08-02T12:58:52.147Z,71.52
2022-08-02T13:01:54.219Z,71.39
2022-08-02T13:04:59.672Z,70.99
2022-08-02T13:08:03.348Z,70.56
2022-08-02T13:11:05.727Z,68.57
2022-08-02T13:14:07.607Z,67.88
2022-08-02T13:17:11.800Z,67.63
2022-08-02T13:20:17.138Z,67.79
2022-08-02T13:23:21.694Z,67.39
2022-08-02T13:26:27.342Z,66.17
2022-08-02T13:29:31.475Z,66.22
2022-08-02T13:32:33.227Z,65.53
2022-08-02T13:35:35.805Z,64.79
2022-08-02T13:38:37.611Z,63.45
2022-08-02T13:41:39.353Z,61.83
2022-08-02T13:44:41.117Z,62.96
2022-08-02T13:48:03.812Z,62.86
2022-08-02T13:51:11.998Z,63.45
2022-08-02T13:54:17.596Z,63.63
2022-08-02T13:57:19.471Z,64.27
2022-08-02T14:00:34.700Z,64.61
2022-08-02T14:04:07.420Z,64.30
2022-08-02T14:06:59.831Z,64.73
2022-08-02T14:10:02.244Z,63.92
2022-08-02T14:13:05.708Z,63.60
2022-08-02T14:16:07.542Z,64.21
2022-08-02T14:19:16.119Z,64.71
2022-08-02T14:22:19.160Z,65.40
2022-08-02T14:25:21.082Z,64.23
2022-08-02T14:28:23.385Z,64.02
2022-08-02T14:31:27.789Z,63.61
2022-08-02T14:34:29.992Z,63.39
2022-08-02T14:37:32.878Z,62.43
2022-08-02T14:40:34.698Z,61.44
2022-08-02T14:43:55.107Z,61.19
2022-08-02T14:46:56.971Z,60.97
2022-08-02T14:49:58.873Z,61.02
2022-08-02T14:53:01.437Z,60.32
2022-08-02T14:56:03.323Z,59.54
2022-08-02T14:59:06.097Z,60.23
2022-08-02T15:02:09.659Z,59.49
2022-08-02T15:05:14.012Z,60.55
2022-08-02T15:08:17.184Z,60.87
2022-08-02T15:11:19.209Z,60.45
2022-08-02T15:14:25.746Z,60.88
2022-08-02T15:17:28.555Z,61.32
2022-08-02T15:20:30.328Z,61.78
2022-08-02T15:23:38.532Z,61.85
2022-08-02T15:26:41.016Z,61.65
2022-08-02T15:29:44.068Z,61.34
2022-08-02T15:32:53.056Z,61.72
2022-08-02T15:35:55.673Z,62.11
2022-08-02T15:38:57.974Z,62.09
2022-08-02T15:41:59.982Z,61.54
2022-08-02T15:45:02.028Z,61.71
2022-08-02T15:48:04.595Z,61.26
2022-08-02T15:51:06.385Z,61.86
2022-08-02T15:54:08.296Z,61.83
2022-08-02T15:57:10.190Z,61.96
2022-08-02T16:00:17.994Z,62.05
2022-08-02T16:03:21.334Z,62.45
2022-08-02T16:06:23.119Z,63.07
2022-08-02T16:09:27.417Z,62.86
2022-08-02T16:12:32.916Z,63.11
2022-08-02T16:15:34.926Z,62.85
2022-08-02T16:18:36.771Z,62.88
2022-08-02T16:21:38.674Z,62.61
2022-08-02T16:24:40.938Z,62.88
2022-08-02T16:27:59.584Z,62.83
2022-08-02T16:31:11.236Z,63.31
2022-08-02T16:34:13.651Z,63.32
2022-08-02T16:37:15.975Z,63.33
2022-08-02T16:40:18.955Z,63.49
2022-08-02T16:43:21.262Z,63.81
2022-08-02T16:46:22.969Z,64.23
2022-08-02T16:50:07.446Z,64.38
2022-08-02T16:52:47.799Z,64.34
2022-08-02T16:55:51.566Z,64.51
2022-08-02T16:58:55.269Z,64.75
2022-08-02T17:02:11.409Z,64.98
2022-08-02T17:05:21.012Z,65.14
2022-08-02T17:08:22.951Z,65.36
2022-08-02T17:11:25.973Z,65.53
2022-08-02T17:14:27.968Z,65.60
2022-08-02T17:17:34.137Z,65.25
2022-08-02T17:20:36.518Z,64.50
2022-08-02T17:24:02.808Z,63.56
2022-08-02T17:27:01.272Z,62.79
2022-08-02T17:30:03.926Z,62.77
2022-08-02T17:33:13.188Z,63.50
2022-08-02T17:36:15.641Z,63.69
2022-08-02T17:39:17.908Z,64.30
2022-08-02T17:42:23.537Z,64.56
2022-08-02T17:45:59.390Z,65.05
2022-08-02T17:49:06.786Z,65.47
2022-08-02T17:52:49.148Z,65.88
2022-08-02T17:55:33.267Z,66.31
2022-08-02T17:58:34.926Z,66.63
2022-08-02T18:01:41.832Z,67.23
2022-08-02T18:04:54.985Z,67.82
2022-08-02T18:08:00.975Z,67.96
2022-08-02T18:11:04.433Z,68.29
2022-08-02T18:14:06.287Z,68.81
2022-08-02T18:17:08.600Z,69.12
2022-08-02T18:20:12.543Z,69.41
2022-08-02T18:23:15.694Z,69.78
2022-08-02T18:26:20.845Z,70.29
2022-08-02T18:29:24.225Z,70.49
2022-08-02T18:33:54.742Z,70.98
2022-08-02T18:35:55.505Z,71.27
2022-08-02T18:38:57.702Z,71.48
2022-08-02T18:41:59.335Z,71.96
2022-08-02T18:45:04.214Z,72.22
2022-08-02T18:48:07.904Z,72.44
2022-08-02T18:51:10.439Z,72.80
2022-08-02T18:54:12.397Z,73.03
2022-08-02T18:58:16.665Z,73.28
2022-08-02T19:00:36.031Z,73.52
2022-08-02T19:03:39.579Z,73.89
2022-08-02T19:06:41.406Z,74.28
2022-08-02T19:09:46.840Z,74.42
2022-08-02T19:12:51.651Z,74.79
2022-08-02T19:15:53.706Z,74.95
2022-08-02T19:18:55.503Z,75.12
2022-08-02T19:22:18.830Z,75.65
2022-08-02T19:25:19.862Z,76.26
2022-08-02T19:28:26.005Z,76.65
2022-08-02T19:31:28.317Z,76.80
2022-08-02T19:34:37.183Z,77.08
2022-08-02T19:37:42.202Z,77.37
2022-08-02T19:40:43.852Z,77.75
2022-08-02T19:44:23.455Z,78.01
2022-08-02T19:47:07.361Z,78.16
2022-08-02T19:50:18.898Z,78.39
2022-08-02T19:53:29.033Z,78.72
2022-08-02T19:56:31.359Z,78.84
2022-08-02T19:59:36.202Z,79.04
2022-08-02T20:02:38.509Z,79.39
2022-08-02T20:05:40.240Z,79.61
2022-08-02T20:08:52.803Z,79.79
2022-08-02T20:11:55.385Z,79.84
2022-08-02T20:14:57.277Z,79.65
2022-08-02T20:17:59.447Z,80.13
2022-08-02T20:21:03.019Z,80.36
2022-08-02T20:24:06.842Z,80.42
2022-08-02T20:27:09.349Z,80.46
2022-08-02T20:30:13.423Z,80.75
2022-08-02T20:33:21.332Z,80.97
2022-08-02T20:36:25.499Z,81.51
2022-08-02T20:39:43.001Z,81.99
2022-08-02T20:42:47.829Z,82.43
2022-08-02T20:45:51.032Z,82.79
2022-08-02T20:48:52.924Z,83.51
2022-08-02T20:51:54.641Z,83.95
2022-08-02T20:55:00.161Z,84.36
2022-08-02T20:58:03.091Z,84.66
2022-08-02T21:01:05.225Z,84.60
2022-08-02T21:04:13.252Z,84.89
2022-08-02T21:07:25.650Z,85.11
2022-08-02T21:10:29.622Z,85.31
2022-08-02T21:13:31.554Z,85.51
2022-08-02T21:16:33.310Z,85.40
2022-08-02T21:19:35.942Z,85.23
2022-08-02T21:22:46.119Z,84.95
2022-08-02T21:25:56.768Z,85.27
2022-08-02T21:29:03.876Z,85.50
2022-08-02T21:32:06.372Z,85.39
2022-08-02T21:35:10.022Z,85.54
2022-08-02T21:41:38.652Z,85.84
2022-08-02T21:44:47.460Z,86.23
2022-08-02T21:47:52.664Z,86.22
2022-08-02T21:50:54.527Z,86.13
2022-08-02T21:54:18.342Z,86.41
2022-08-02T21:57:18.763Z,87.27
2022-08-02T22:00:28.227Z,87.95
2022-08-02T22:03:30.461Z,88.40
2022-08-02T22:06:32.150Z,88.37
2022-08-02T22:09:42.817Z,87.09
2022-08-02T22:12:47.115Z,87.06
2022-08-02T22:15:49.435Z,87.52
2022-08-02T22:18:52.818Z,87.81
2022-08-02T22:21:55.900Z,88.09
2022-08-02T22:24:57.589Z,88.19
2022-08-02T22:28:38.367Z,88.09
2022-08-02T22:31:40.799Z,88.31
2022-08-02T22:34:51.977Z,88.33
2022-08-02T22:38:16.844Z,88.54
2022-08-02T22:41:18.036Z,88.88
2022-08-02T22:44:20.770Z,89.18
2022-08-02T22:47:22.453Z,89.49
2022-08-02T22:50:28.797Z,89.50
2022-08-02T22:53:35.536Z,89.62
2022-08-02T22:56:37.670Z,89.95
2022-08-02T22:59:03.236Z,85.80
2022-08-02T22:59:40.822Z,90.15
2022-08-02T23:02:44.745Z,90.43
2022-08-02T23:05:47.580Z,90.39
2022-08-02T23:08:49.308Z,90.39
2022-08-02T23:11:51.100Z,90.46
2022-08-02T23:14:53.142Z,90.50
2022-08-02T23:18:14.358Z,90.67
2022-08-02T23:21:45.576Z,91.07
2022-08-02T23:24:42.503Z,90.87
2022-08-02T23:27:50.543Z,90.17
2022-08-02T23:30:52.722Z,90.74
2022-08-02T23:34:03.950Z,90.80
2022-08-02T23:37:06.936Z,90.75
2022-08-02T23:40:09.418Z,91.19
2022-08-02T23:43:14.033Z,91.53
2022-08-02T23:46:17.364Z,91.49
2022-08-02T23:49:19.708Z,91.56
2022-08-02T23:52:21.510Z,91.38
2022-08-02T23:55:23.263Z,91.63
2022-08-02T23:58:25.064Z,91.97
